createdAt,value
2022-12-31T00:03:23.565Z,77.27868
2022-12-31T00:08:25.253Z,83.68639
2022-12-31T00:13:26.941Z,81.27329
2022-12-31T00:18:28.582Z,81.81027
2022-12-31T00:23:30.284Z,85.28141
2022-12-31T00:28:31.951Z,86.56482
2022-12-31T00:33:33.594Z,85.77087
2022-12-31T00:38:35.248Z,86.11595
2022-12-31T00:43:36.897Z,87.52601
2022-12-31T00:48:38.528Z,84.00779
2022-12-31T00:53:40.154Z,84.74505
2022-12-31T00:58:41.940Z,83.19195
2022-12-31T01:03:43.582Z,80.98328
2022-12-31T01:08:45.208Z,77.13813
2022-12-31T01:13:46.874Z,79.62116
2022-12-31T01:18:48.554Z,78.83282
2022-12-31T01:23:50.284Z,77.62499
2022-12-31T01:28:52.290Z,80.40343
2022-12-31T01:33:53.937Z,78.54366
2022-12-31T01:38:55.675Z,78.41146
2022-12-31T01:43:57.348Z,79.62686
2022-12-31T01:48:59.007Z,80.11009
2022-12-31T01:54:00.641Z,76.67121
2022-12-31T01:59:02.268Z,76.94438
2022-12-31T02:04:03.931Z,78.90383
2022-12-31T02:09:05.588Z,78.78703
2022-12-31T02:14:07.392Z,80.58483
2022-12-31T02:19:09.307Z,82.22081
2022-12-31T02:24:10.899Z,82.55337
2022-12-31T02:29:12.503Z,81.26868
2022-12-31T02:34:14.149Z,84.48517
2022-12-31T02:39:15.881Z,79.12952
2022-12-31T02:44:17.508Z,77.42438
2022-12-31T02:49:19.294Z,77.13866
2022-12-31T02:54:20.923Z,77.45954
2022-12-31T02:59:22.817Z,78.11571
2022-12-31T03:04:24.488Z,76.79955
2022-12-31T03:09:26.168Z,77.34887
2022-12-31T03:14:27.850Z,77.17028
2022-12-31T03:19:29.510Z,78.47875
2022-12-31T03:24:31.154Z,77.12114
2022-12-31T03:29:33.101Z,77.40074
2022-12-31T03:34:34.699Z,76.61467
2022-12-31T03:39:36.371Z,76.18435
2022-12-31T03:44:38.025Z,76.91357
2022-12-31T03:49:39.600Z,78.77479
2022-12-31T03:54:41.160Z,78.42543
2022-12-31T03:59:42.788Z,76.77024
2022-12-31T04:04:44.687Z,77.79433
2022-12-31T04:09:46.289Z,76.50661
2022-12-31T04:14:47.950Z,76.7256
2022-12-31T04:19:49.613Z,76.88306
2022-12-31T04:24:51.247Z,77.50124
2022-12-31T04:29:52.992Z,78.60623
2022-12-31T04:34:54.711Z,80.18286
2022-12-31T04:40:01.861Z,77.38704
2022-12-31T04:45:07.063Z,77.6402
2022-12-31T04:50:08.949Z,76.87756
2022-12-31T04:55:10.820Z,77.87224
2022-12-31T05:00:12.460Z,80.10241
2022-12-31T05:05:14.153Z,83.137
2022-12-31T05:10:15.883Z,79.73912
2022-12-31T05:15:17.503Z,78.21443
2022-12-31T05:20:19.159Z,77.95315
2022-12-31T05:25:20.861Z,77.11191
2022-12-31T05:30:22.526Z,75.35154
2022-12-31T05:35:24.255Z,76.50294
2022-12-31T05:40:25.919Z,77.10555
2022-12-31T05:45:30.744Z,77.48937
2022-12-31T05:50:33.057Z,77.17154
2022-12-31T05:55:34.621Z,76.15689
2022-12-31T06:00:36.270Z,77.71794
2022-12-31T06:05:38.024Z,75.82334
2022-12-31T06:10:39.856Z,75.4798
2022-12-31T06:15:41.604Z,77.29021
2022-12-31T06:20:43.344Z,78.57955
2022-12-31T06:25:45.061Z,79.01725
2022-12-31T06:30:46.889Z,78.16317
2022-12-31T06:35:48.619Z,77.1577
2022-12-31T06:40:50.248Z,76.97959
2022-12-31T06:45:51.851Z,77.53178
2022-12-31T06:50:53.491Z,76.96551
2022-12-31T06:55:55.239Z,76.44488
2022-12-31T07:00:56.985Z,78.07921
2022-12-31T07:05:58.685Z,76.48238
2022-12-31T07:11:00.394Z,76.97412
2022-12-31T07:16:02.126Z,77.1564
2022-12-31T07:21:03.817Z,77.83586
2022-12-31T07:26:05.458Z,76.96623
2022-12-31T07:31:07.136Z,78.0531
2022-12-31T07:36:08.869Z,79.06086
2022-12-31T07:41:10.515Z,78.75004
2022-12-31T07:46:12.267Z,79.16834
2022-12-31T07:51:13.984Z,80.31049
2022-12-31T07:56:15.704Z,76.77726
2022-12-31T08:01:17.598Z,76.51079
2022-12-31T08:06:19.344Z,75.98405
2022-12-31T08:11:20.963Z,77.19437
2022-12-31T08:16:22.755Z,77.82386
2022-12-31T08:21:28.201Z,78.62851
2022-12-31T08:26:32.860Z,76.88798
2022-12-31T08:31:34.520Z,77.88749
2022-12-31T08:36:36.189Z,77.01098
2022-12-31T08:41:42.688Z,78.35334
2022-12-31T08:46:45.053Z,77.95728
2022-12-31T08:51:46.810Z,77.7075
2022-12-31T08:56:50.627Z,79.48899
2022-12-31T09:01:52.761Z,79.48334
2022-12-31T09:06:54.485Z,79.10106
2022-12-31T09:11:56.334Z,78.41331
2022-12-31T09:16:58.009Z,77.99361
2022-12-31T09:21:59.725Z,79.00113
2022-12-31T09:27:01.511Z,78.1617
2022-12-31T09:32:03.372Z,77.022
2022-12-31T09:37:05.135Z,77.42605
2022-12-31T09:42:06.831Z,78.02246
2022-12-31T09:47:08.467Z,77.6583
2022-12-31T09:52:10.133Z,77.44177
2022-12-31T09:57:11.926Z,77.23659
2022-12-31T10:02:13.848Z,76.9825
2022-12-31T10:07:15.617Z,76.6861
2022-12-31T10:12:17.421Z,77.30905
2022-12-31T10:17:19.114Z,78.53469
2022-12-31T10:22:20.691Z,80.46962
2022-12-31T10:27:22.294Z,78.74885
2022-12-31T10:32:31.075Z,80.2786
2022-12-31T10:37:33.427Z,75.97015
2022-12-31T10:42:35.328Z,77.07501
2022-12-31T10:47:37.029Z,78.22761
2022-12-31T10:52:41.708Z,77.31716
2022-12-31T10:57:43.891Z,78.0979
2022-12-31T11:02:45.883Z,77.20243
2022-12-31T11:07:47.620Z,79.02308
2022-12-31T11:12:49.270Z,76.94819
2022-12-31T11:17:50.926Z,80.51101
2022-12-31T11:22:52.786Z,79.88771
2022-12-31T11:27:54.451Z,76.47909
2022-12-31T11:32:56.171Z,77.80797
2022-12-31T11:37:57.826Z,78.00099
2022-12-31T11:42:59.522Z,77.86334
2022-12-31T11:48:29.710Z,77.31674
2022-12-31T11:53:32.606Z,80.9698
2022-12-31T11:58:34.422Z,80.27933
2022-12-31T12:03:36.103Z,81.12538
2022-12-31T12:08:37.918Z,82.76923
2022-12-31T12:13:39.550Z,81.63989
2022-12-31T12:18:41.194Z,78.53766
2022-12-31T12:23:42.856Z,78.55891
2022-12-31T12:28:44.724Z,77.41896
2022-12-31T12:33:47.335Z,79.60068
2022-12-31T12:38:49.228Z,77.78444
2022-12-31T12:43:51.049Z,75.87409
2022-12-31T12:48:52.867Z,76.45335
2022-12-31T12:53:54.499Z,79.00186
2022-12-31T12:58:56.146Z,78.31892
2022-12-31T13:04:32.857Z,78.63069
2022-12-31T13:09:35.439Z,77.98266
2022-12-31T13:14:37.272Z,77.47413
2022-12-31T13:19:38.888Z,76.23684
2022-12-31T13:24:40.573Z,77.89967
2022-12-31T13:29:42.196Z,78.59168
2022-12-31T13:34:43.938Z,79.41881
2022-12-31T13:39:45.713Z,80.4672
2022-12-31T13:44:47.408Z,77.4667
2022-12-31T13:49:49.248Z,80.22117
2022-12-31T13:54:50.882Z,81.0607
2022-12-31T13:59:52.508Z,79.85091
2022-12-31T14:04:54.577Z,76.43772
2022-12-31T14:09:56.252Z,76.06393
2022-12-31T14:14:57.924Z,76.58683
2022-12-31T14:19:59.663Z,76.67892
2022-12-31T14:25:01.383Z,76.93518
2022-12-31T14:30:03.071Z,76.46202
2022-12-31T14:35:04.717Z,78.14809
2022-12-31T14:40:06.371Z,76.85493
2022-12-31T14:45:08.041Z,78.01444
2022-12-31T14:50:09.714Z,82.48706
2022-12-31T14:55:11.328Z,78.92975
2022-12-31T15:00:13.014Z,76.72677
2022-12-31T15:05:14.641Z,76.48788
2022-12-31T15:10:16.268Z,77.01021
2022-12-31T15:15:17.901Z,76.41142
2022-12-31T15:20:19.542Z,77.37438
2022-12-31T15:25:21.369Z,78.16643
2022-12-31T15:30:23.259Z,76.66866
2022-12-31T15:35:25.131Z,77.80097
2022-12-31T15:40:26.813Z,77.17415
2022-12-31T15:45:28.547Z,77.41183
2022-12-31T15:50:30.334Z,79.8394
2022-12-31T15:55:31.935Z,78.44762
2022-12-31T16:00:33.579Z,77.51852
2022-12-31T16:05:35.218Z,78.31611
2022-12-31T16:10:36.887Z,77.1143
2022-12-31T16:15:38.737Z,76.22644
2022-12-31T16:20:40.435Z,76.21872
2022-12-31T16:25:42.087Z,76.36964
2022-12-31T16:30:43.805Z,76.71161
2022-12-31T16:35:45.556Z,77.57705
2022-12-31T16:40:47.255Z,76.96628
2022-12-31T16:45:48.885Z,77.39127
2022-12-31T16:50:50.581Z,77.42993
2022-12-31T16:55:52.335Z,77.07206
2022-12-31T17:00:53.953Z,76.53193
2022-12-31T17:05:55.684Z,76.21251
2022-12-31T17:10:57.353Z,76.50203
2022-12-31T17:15:59.317Z,76.78085
2022-12-31T17:21:01.013Z,76.24177
2022-12-31T17:26:02.798Z,77.34504
2022-12-31T17:31:04.545Z,77.2431
2022-12-31T17:36:06.222Z,76.3066
2022-12-31T17:41:07.900Z,76.40975
2022-12-31T17:46:09.713Z,76.87421
2022-12-31T17:51:11.662Z,76.57467
2022-12-31T17:56:13.288Z,79.18984
2022-12-31T18:01:15.310Z,79.94305
2022-12-31T18:06:17.389Z,76.76888
2022-12-31T18:11:19.107Z,75.64784
2022-12-31T18:16:20.817Z,76.2043
2022-12-31T18:21:22.536Z,76.34774
2022-12-31T18:26:24.255Z,76.30833
2022-12-31T18:31:26.019Z,75.17653
2022-12-31T18:36:27.726Z,74.29749
2022-12-31T18:41:29.479Z,74.15078
2022-12-31T18:46:31.184Z,73.87286
2022-12-31T18:51:32.819Z,74.81263
2022-12-31T18:56:34.453Z,73.61325
2022-12-31T19:01:36.259Z,74.2703
2022-12-31T19:06:38.236Z,74.89719
2022-12-31T19:11:39.954Z,75.22378
2022-12-31T19:16:41.676Z,73.36205
2022-12-31T19:21:43.307Z,72.98439
2022-12-31T19:26:45.148Z,74.0476
2022-12-31T19:31:46.833Z,76.10602
2022-12-31T19:36:48.572Z,78.63149
2022-12-31T19:41:54.736Z,78.78728
2022-12-31T19:47:00.109Z,77.18082
2022-12-31T19:52:01.732Z,77.41331
2022-12-31T19:57:03.399Z,80.47905
2022-12-31T20:02:05.177Z,76.08047
2022-12-31T20:07:06.935Z,78.69244
2022-12-31T20:12:08.707Z,76.7445
2022-12-31T20:17:10.353Z,75.58616
2022-12-31T20:22:11.988Z,74.42847
2022-12-31T20:27:18.442Z,74.83687
2022-12-31T20:32:20.425Z,76.18996
2022-12-31T20:37:22.315Z,75.38298
2022-12-31T20:42:23.962Z,74.75138
2022-12-31T20:47:25.652Z,74.33219
2022-12-31T20:52:27.331Z,73.85565
2022-12-31T20:57:33.537Z,73.9348
2022-12-31T21:02:42.168Z,74.5771
2022-12-31T21:07:44.887Z,73.41372
2022-12-31T21:12:46.582Z,73.81767
2022-12-31T21:17:48.335Z,74.37473
2022-12-31T21:22:49.975Z,74.42265
2022-12-31T21:27:51.681Z,74.20479
2022-12-31T21:32:53.315Z,74.40623
2022-12-31T21:37:59.262Z,72.4856
2022-12-31T21:43:02.326Z,72.30124
2022-12-31T21:48:04.064Z,72.52898
2022-12-31T21:53:05.749Z,71.40158
2022-12-31T21:58:27.406Z,71.41619
2022-12-31T22:03:29.929Z,69.88506
2022-12-31T22:08:31.586Z,73.81277
2022-12-31T22:13:33.296Z,74.8724
2022-12-31T22:18:35.096Z,74.40021
2022-12-31T22:23:36.865Z,72.48402
2022-12-31T22:28:39.720Z,70.90173
2022-12-31T22:33:41.597Z,71.17081
2022-12-31T22:38:43.188Z,72.3847
2022-12-31T22:43:44.832Z,72.40823
2022-12-31T22:48:46.463Z,74.11696
2022-12-31T22:53:48.417Z,70.94587
2022-12-31T22:58:50.072Z,70.08452
2022-12-31T23:03:51.814Z,71.67536
2022-12-31T23:08:53.514Z,72.4229
2022-12-31T23:13:55.137Z,73.26303
2022-12-31T23:19:01.811Z,73.85683
2022-12-31T23:24:10.060Z,74.90844
2022-12-31T23:29:17.554Z,73.8942
2022-12-31T23:34:19.166Z,73.71737
2022-12-31T23:39:20.803Z,73.55819
2022-12-31T23:44:22.576Z,72.1384
2022-12-31T23:49:24.270Z,71.51931
2022-12-31T23:54:25.902Z,72.92772
2022-12-31T23:59:27.439Z,73.01633
